createdAt,value
2023-06-19T00:01:20.872Z,99959.50
2023-06-19T00:03:48.617Z,99949.41
2023-06-19T00:06:16.362Z,99938.19
2023-06-19T00:09:02.148Z,99937.66
2023-06-19T00:11:29.908Z,99942.44
2023-06-19T00:13:58.932Z,99942.91
2023-06-19T00:16:27.186Z,99950.81
2023-06-19T00:18:56.730Z,99953.88
2023-06-19T00:21:25.501Z,99949.19
2023-06-19T00:23:53.730Z,99942.97
2023-06-19T00:26:23.507Z,99942.88
2023-06-19T00:28:51.375Z,99965.84
2023-06-19T00:31:20.716Z,99951.81
2023-06-19T00:33:49.210Z,99964.19
2023-06-19T00:36:21.109Z,99950.25
2023-06-19T00:38:49.444Z,99941.97
2023-06-19T00:41:17.902Z,99956.00
2023-06-19T00:43:46.210Z,99948.69
2023-06-19T00:46:14.339Z,99978.91
2023-06-19T00:48:43.589Z,99953.88
2023-06-19T00:51:11.524Z,99971.97
2023-06-19T00:53:39.220Z,99966.53
2023-06-19T00:56:07.677Z,99975.94
2023-06-19T00:58:36.254Z,99976.84
2023-06-19T01:01:09.377Z,99970.16
2023-06-19T01:03:38.560Z,99968.16
2023-06-19T01:06:12.837Z,99953.38
2023-06-19T01:08:47.858Z,99968.47
2023-06-19T01:11:26.853Z,99969.63
2023-06-19T01:13:59.340Z,99967.25
2023-06-19T01:16:27.779Z,99964.81
2023-06-19T01:18:55.694Z,99965.63
2023-06-19T01:21:25.009Z,99959.69
2023-06-19T01:23:54.113Z,99960.31
2023-06-19T01:26:27.507Z,99959.84
2023-06-19T01:28:56.558Z,99975.63
2023-06-19T01:31:27.696Z,99960.06
2023-06-19T01:33:56.371Z,99962.41
2023-06-19T01:36:26.118Z,99963.34
2023-06-19T01:38:57.063Z,99962.63
2023-06-19T01:41:25.079Z,99956.78
2023-06-19T01:43:53.696Z,99961.75
2023-06-19T01:46:21.844Z,99964.69
2023-06-19T01:48:49.641Z,99953.22
2023-06-19T01:51:18.243Z,99962.31
2023-06-19T01:53:45.909Z,99969.31
2023-06-19T01:56:15.026Z,99961.50
2023-06-19T01:58:42.718Z,99970.03
2023-06-19T02:01:10.410Z,99964.56
2023-06-19T02:03:38.210Z,99972.97
2023-06-19T02:06:06.081Z,99961.56
2023-06-19T02:11:20.800Z,99949.50
2023-06-19T02:13:48.470Z,99949.44
2023-06-19T02:16:16.664Z,99953.03
2023-06-19T02:18:44.401Z,99952.94
2023-06-19T02:21:12.168Z,99962.88
2023-06-19T02:23:39.892Z,99957.78
2023-06-19T02:26:07.578Z,99954.56
2023-06-19T02:28:36.624Z,99965.28
2023-06-19T02:31:04.416Z,99939.56
2023-06-19T02:33:33.533Z,99942.44
2023-06-19T02:36:01.307Z,99950.25
2023-06-19T02:38:30.605Z,99964.81
2023-06-19T02:41:01.592Z,99960.69
2023-06-19T02:43:29.319Z,99955.63
2023-06-19T02:45:58.553Z,99956.44
2023-06-19T02:48:26.521Z,99945.66
2023-06-19T02:50:54.190Z,99965.47
2023-06-19T02:53:21.864Z,99960.34
2023-06-19T02:55:49.550Z,99956.94
2023-06-19T02:58:17.245Z,99958.13
2023-06-19T03:00:45.030Z,99964.22
2023-06-19T03:03:14.354Z,99957.44
2023-06-19T03:05:42.811Z,99956.84
2023-06-19T03:08:10.551Z,99969.66
2023-06-19T03:10:38.345Z,99968.13
2023-06-19T03:13:06.030Z,99985.69
2023-06-19T03:15:33.774Z,99984.00
2023-06-19T03:18:04.449Z,99977.22
2023-06-19T03:20:33.879Z,99982.13
2023-06-19T03:23:01.577Z,99984.78
2023-06-19T03:25:34.667Z,99976.41
2023-06-19T03:28:02.632Z,99991.22
2023-06-19T03:30:30.328Z,99995.44
2023-06-19T03:32:58.069Z,99998.50
2023-06-19T03:35:25.772Z,99992.34
2023-06-19T03:37:55.229Z,100003.91
2023-06-19T03:40:23.849Z,99999.50
2023-06-19T03:42:51.782Z,99999.47
2023-06-19T03:45:19.470Z,100004.72
2023-06-19T03:47:47.186Z,99999.91
2023-06-19T03:50:21.393Z,100003.50
2023-06-19T03:52:50.033Z,99999.53
2023-06-19T03:55:19.818Z,100001.19
2023-06-19T03:57:47.580Z,100016.34
2023-06-19T04:00:16.741Z,100016.69
2023-06-19T04:02:44.497Z,100027.50
2023-06-19T04:05:12.221Z,100025.63
2023-06-19T04:07:39.941Z,100022.44
2023-06-19T04:10:09.233Z,100019.56
2023-06-19T04:12:38.333Z,100032.97
2023-06-19T04:15:07.116Z,100026.66
2023-06-19T04:17:34.894Z,100025.66
2023-06-19T04:20:02.642Z,100019.81
2023-06-19T04:22:30.322Z,100037.44
2023-06-19T04:24:58.010Z,100040.72
2023-06-19T04:27:25.692Z,100050.13
2023-06-19T04:29:54.835Z,100045.22
2023-06-19T04:32:23.045Z,100039.94
2023-06-19T04:34:50.791Z,100061.28
2023-06-19T04:37:20.202Z,100052.13
2023-06-19T04:39:48.120Z,100046.22
2023-06-19T04:42:20.634Z,100050.84
2023-06-19T04:44:48.460Z,100060.75
2023-06-19T04:47:19.750Z,100059.75
2023-06-19T04:49:47.768Z,100058.38
2023-06-19T04:52:15.591Z,100063.88
2023-06-19T04:54:43.260Z,100056.56
2023-06-19T04:57:30.933Z,100069.31
2023-06-19T04:59:58.974Z,100066.41
2023-06-19T05:02:28.196Z,100075.69
2023-06-19T05:04:55.891Z,100082.09
2023-06-19T05:07:23.901Z,100078.53
2023-06-19T05:09:51.577Z,100076.06
2023-06-19T05:12:19.307Z,100082.06
2023-06-19T05:14:46.996Z,100084.66
2023-06-19T05:17:14.801Z,100097.66
2023-06-19T05:19:44.256Z,100092.22
2023-06-19T05:22:11.913Z,100102.63
2023-06-19T05:24:39.931Z,100088.00
2023-06-19T05:27:08.336Z,100108.31
2023-06-19T05:29:36.150Z,100090.34
2023-06-19T05:32:04.202Z,100110.06
2023-06-19T05:34:31.933Z,100104.81
2023-06-19T05:37:04.627Z,100121.47
2023-06-19T05:39:32.339Z,100112.53
2023-06-19T05:42:00.209Z,100115.94
2023-06-19T05:44:28.126Z,100107.75
2023-06-19T05:47:00.603Z,100122.75
2023-06-19T05:49:28.313Z,100136.06
2023-06-19T05:52:00.097Z,100126.47
2023-06-19T05:54:29.363Z,100144.31
2023-06-19T05:56:57.035Z,100152.75
2023-06-19T05:59:27.744Z,100146.78
2023-06-19T06:01:56.797Z,100153.66
2023-06-19T06:04:24.630Z,100147.97
2023-06-19T06:06:52.542Z,100147.44
2023-06-19T06:09:21.639Z,100151.97
2023-06-19T06:11:50.863Z,100157.88
2023-06-19T06:14:19.132Z,100153.09
2023-06-19T06:16:46.961Z,100161.88
2023-06-19T06:19:15.158Z,100168.03
2023-06-19T06:21:42.909Z,100172.03
2023-06-19T06:24:10.679Z,100162.06
2023-06-19T06:26:38.914Z,100165.03
2023-06-19T06:29:08.076Z,100176.78
2023-06-19T06:31:36.005Z,100179.03
2023-06-19T06:34:03.733Z,100207.78
2023-06-19T06:39:03.882Z,100195.22
2023-06-19T06:41:31.926Z,100202.59
2023-06-19T06:43:59.816Z,100206.59
2023-06-19T06:46:29.246Z,100213.53
2023-06-19T06:48:56.979Z,100208.19
2023-06-19T06:51:24.781Z,100202.41
2023-06-19T06:53:52.919Z,100200.06
2023-06-19T06:56:20.994Z,100214.03
2023-06-19T06:58:49.173Z,100204.31
2023-06-19T07:01:17.154Z,100209.63
2023-06-19T07:03:46.525Z,100222.88
2023-06-19T07:06:14.356Z,100212.06
2023-06-19T07:08:42.531Z,100223.97
2023-06-19T07:11:10.268Z,100217.56
2023-06-19T07:13:37.933Z,100235.25
2023-06-19T07:16:06.128Z,100211.84
2023-06-19T07:18:34.564Z,100213.66
2023-06-19T07:21:03.717Z,100213.53
2023-06-19T07:23:31.402Z,100233.22
2023-06-19T07:26:00.259Z,100237.47
2023-06-19T07:28:28.284Z,100233.34
2023-06-19T07:30:55.955Z,100234.72
2023-06-19T07:33:23.569Z,100232.88
2023-06-19T07:35:51.437Z,100219.88
2023-06-19T07:38:20.549Z,100228.72
2023-06-19T07:40:48.392Z,100238.34
2023-06-19T07:43:16.385Z,100230.13
2023-06-19T07:45:44.167Z,100229.69
2023-06-19T07:48:11.936Z,100235.78
2023-06-19T07:50:39.600Z,100230.69
2023-06-19T07:53:07.505Z,100235.31
2023-06-19T07:55:36.802Z,100245.28
2023-06-19T07:58:04.556Z,100246.59
2023-06-19T08:00:49.062Z,100242.00
2023-06-19T08:03:16.808Z,100246.69
2023-06-19T08:05:44.774Z,100240.06
2023-06-19T08:08:15.228Z,100229.63
2023-06-19T08:10:44.340Z,100234.66
2023-06-19T08:13:12.757Z,100239.13
2023-06-19T08:15:40.382Z,100262.88
2023-06-19T08:18:08.078Z,100257.63
2023-06-19T08:20:35.735Z,100247.41
2023-06-19T08:23:05.168Z,100261.00
2023-06-19T08:25:34.249Z,100262.09
2023-06-19T08:28:03.921Z,100249.28
2023-06-19T08:30:31.795Z,100254.91
2023-06-19T08:32:59.412Z,100258.88
2023-06-19T08:35:27.222Z,100278.19
2023-06-19T08:37:57.305Z,100277.31
2023-06-19T08:40:25.749Z,100272.06
2023-06-19T08:42:54.694Z,100264.81
2023-06-19T08:45:24.084Z,100269.91
2023-06-19T08:47:52.102Z,100271.50
2023-06-19T08:50:21.716Z,100266.31
2023-06-19T08:52:49.598Z,100281.66
2023-06-19T08:55:17.340Z,100274.44
2023-06-19T08:57:45.225Z,100283.78
2023-06-19T09:00:13.892Z,100270.31
2023-06-19T09:02:44.459Z,100280.09
2023-06-19T09:05:14.545Z,100288.56
2023-06-19T09:07:42.493Z,100281.41
2023-06-19T09:10:17.023Z,100276.63
2023-06-19T09:12:45.568Z,100280.72
2023-06-19T09:15:14.245Z,100283.94
2023-06-19T09:17:43.356Z,100276.75
2023-06-19T09:20:12.808Z,100272.19
2023-06-19T09:22:40.639Z,100297.06
2023-06-19T09:25:11.349Z,100294.47
2023-06-19T09:27:39.110Z,100293.03
2023-06-19T09:30:09.137Z,100285.63
2023-06-19T09:32:37.564Z,100290.63
2023-06-19T09:35:07.565Z,100294.25
2023-06-19T09:37:35.850Z,100293.59
2023-06-19T09:40:10.969Z,100299.78
2023-06-19T09:42:43.486Z,100318.59
2023-06-19T09:45:13.215Z,100306.41
2023-06-19T09:47:42.060Z,100297.97
2023-06-19T09:50:14.534Z,100306.59
2023-06-19T09:52:42.591Z,100307.22
2023-06-19T09:55:13.898Z,100304.38
2023-06-19T09:57:42.839Z,100321.59
2023-06-19T10:00:13.668Z,100310.31
2023-06-19T10:02:51.306Z,100309.19
2023-06-19T10:05:31.447Z,100298.84
2023-06-19T10:08:01.117Z,100325.03
2023-06-19T10:10:33.154Z,100318.22
2023-06-19T10:13:13.950Z,100311.91
2023-06-19T10:15:43.520Z,100331.00
2023-06-19T10:18:17.318Z,100320.03
2023-06-19T10:20:47.768Z,100314.69
2023-06-19T10:23:20.227Z,100304.75
2023-06-19T10:25:50.338Z,100316.41
2023-06-19T10:28:19.321Z,100310.47
2023-06-19T10:30:47.388Z,100326.38
2023-06-19T10:33:15.068Z,100316.13
2023-06-19T10:35:43.170Z,100330.19
2023-06-19T10:38:12.506Z,100324.88
2023-06-19T10:40:40.534Z,100332.16
2023-06-19T10:43:08.253Z,100330.88
2023-06-19T10:45:36.097Z,100337.78
2023-06-19T10:48:05.234Z,100350.69
2023-06-19T10:50:37.189Z,100344.97
2023-06-19T10:53:05.109Z,100324.75
2023-06-19T10:55:36.456Z,100331.81
2023-06-19T10:58:04.532Z,100331.94
2023-06-19T11:00:34.960Z,100339.34
2023-06-19T11:03:02.730Z,100319.97
2023-06-19T11:05:31.000Z,100342.25
2023-06-19T11:07:59.999Z,100334.47
2023-06-19T11:10:29.292Z,100330.00
2023-06-19T11:12:59.896Z,100336.91
2023-06-19T11:15:31.824Z,100317.38
2023-06-19T11:18:00.147Z,100332.75
2023-06-19T11:20:28.006Z,100316.53
2023-06-19T11:23:01.992Z,100317.81
2023-06-19T11:25:37.927Z,100339.16
2023-06-19T11:28:08.089Z,100305.84
2023-06-19T11:31:00.486Z,100309.88
2023-06-19T11:33:28.355Z,100335.44
2023-06-19T11:35:56.783Z,100332.97
2023-06-19T11:38:25.802Z,100324.50
2023-06-19T11:40:54.301Z,100313.34
2023-06-19T11:43:30.876Z,100312.88
2023-06-19T11:46:04.010Z,100328.84
2023-06-19T11:48:31.815Z,100323.44
2023-06-19T11:50:59.918Z,100339.44
2023-06-19T11:53:27.675Z,100310.41
2023-06-19T11:55:55.544Z,100323.94
2023-06-19T11:58:23.841Z,100316.81
2023-06-19T12:00:53.268Z,100303.63
2023-06-19T12:03:21.231Z,100304.75
2023-06-19T12:05:49.160Z,100307.25
2023-06-19T12:08:17.094Z,100299.69
2023-06-19T12:10:44.968Z,100320.81
2023-06-19T12:13:18.757Z,100306.78
2023-06-19T12:15:47.089Z,100305.47
2023-06-19T12:18:17.892Z,100317.06
2023-06-19T12:20:45.960Z,100324.97
2023-06-19T12:23:23.108Z,100309.38
2023-06-19T12:25:51.265Z,100317.50
2023-06-19T12:28:19.818Z,100328.69
2023-06-19T12:30:49.338Z,100317.50
2023-06-19T12:33:19.308Z,100338.25
2023-06-19T12:35:47.498Z,100320.25
2023-06-19T12:38:15.439Z,100322.00
2023-06-19T12:40:43.771Z,100330.75
2023-06-19T12:43:11.451Z,100328.38
2023-06-19T12:45:39.079Z,100339.63
2023-06-19T12:48:07.173Z,100333.94
2023-06-19T12:50:36.639Z,100330.84
2023-06-19T12:53:04.766Z,100335.63
2023-06-19T12:55:32.604Z,100334.41
2023-06-19T12:58:00.286Z,100338.91
2023-06-19T13:00:27.933Z,100336.81
2023-06-19T13:02:55.781Z,100335.91
2023-06-19T13:05:23.836Z,100334.53
2023-06-19T13:07:53.044Z,100319.06
2023-06-19T13:10:20.794Z,100324.25
2023-06-19T13:12:48.783Z,100339.53
2023-06-19T13:15:16.821Z,100337.66
2023-06-19T13:17:44.508Z,100333.16
2023-06-19T13:20:12.647Z,100327.28
2023-06-19T13:22:56.740Z,100330.03
2023-06-19T13:25:24.907Z,100340.59
2023-06-19T13:27:52.710Z,100334.72
2023-06-19T13:30:20.731Z,100347.88
2023-06-19T13:32:48.622Z,100350.59
2023-06-19T13:35:16.467Z,100336.59
2023-06-19T13:37:44.708Z,100337.59
2023-06-19T13:40:14.641Z,100329.88
2023-06-19T13:42:42.312Z,100322.34
2023-06-19T13:45:10.536Z,100335.81
2023-06-19T13:47:39.615Z,100325.78
2023-06-19T13:50:08.757Z,100327.22
2023-06-19T13:52:37.459Z,100320.81
2023-06-19T13:55:05.991Z,100317.63
2023-06-19T13:57:35.114Z,100334.59
2023-06-19T14:00:04.208Z,100341.91
2023-06-19T14:02:32.228Z,100329.03
2023-06-19T14:05:01.064Z,100322.38
2023-06-19T14:07:28.912Z,100336.69
2023-06-19T14:09:56.645Z,100340.31
2023-06-19T14:12:24.320Z,100325.19
2023-06-19T14:14:54.019Z,100324.31
2023-06-19T14:17:22.623Z,100331.47
2023-06-19T14:19:52.105Z,100325.28
2023-06-19T14:22:20.252Z,100319.69
2023-06-19T14:24:48.368Z,100322.97
2023-06-19T14:27:16.180Z,100328.66
2023-06-19T14:29:43.848Z,100327.16
2023-06-19T14:32:13.380Z,100318.50
2023-06-19T14:34:41.185Z,100340.66
2023-06-19T14:37:09.303Z,100321.19
2023-06-19T14:39:37.231Z,100337.53
2023-06-19T14:42:05.283Z,100354.47
2023-06-19T14:44:35.207Z,100329.69
2023-06-19T14:47:02.938Z,100323.53
2023-06-19T14:49:32.314Z,100354.22
2023-06-19T14:52:00.012Z,100329.75
2023-06-19T14:54:27.792Z,100321.56
2023-06-19T14:56:55.451Z,100323.72
2023-06-19T14:59:23.298Z,100315.56
2023-06-19T15:01:51.754Z,100327.38
2023-06-19T15:04:19.865Z,100313.78
2023-06-19T15:06:49.035Z,100319.47
2023-06-19T15:09:16.758Z,100327.25
2023-06-19T15:11:44.408Z,100333.97
2023-06-19T15:14:12.311Z,100318.53
2023-06-19T15:16:40.288Z,100311.00
2023-06-19T15:19:08.318Z,100330.22
2023-06-19T15:21:39.428Z,100327.16
2023-06-19T15:24:09.676Z,100324.81
2023-06-19T15:26:58.229Z,100323.81
2023-06-19T15:29:26.147Z,100309.56
2023-06-19T15:31:54.094Z,100305.19
2023-06-19T15:34:21.751Z,100305.50
2023-06-19T15:36:49.743Z,100308.00
2023-06-19T15:39:18.784Z,100303.13
2023-06-19T15:41:47.497Z,100307.00
2023-06-19T15:44:16.000Z,100297.53
2023-06-19T15:46:44.053Z,100314.94
2023-06-19T15:49:13.875Z,100316.88
2023-06-19T15:51:41.771Z,100314.16
2023-06-19T15:54:09.580Z,100305.09
2023-06-19T15:56:40.457Z,100294.34
2023-06-19T15:59:08.153Z,100296.22
2023-06-19T16:01:35.892Z,100287.81
2023-06-19T16:04:03.908Z,100291.03
2023-06-19T16:06:31.764Z,100293.31
2023-06-19T16:08:59.465Z,100286.19
2023-06-19T16:11:27.266Z,100288.59
2023-06-19T16:13:56.598Z,100287.13
2023-06-19T16:16:24.399Z,100289.38
2023-06-19T16:18:52.145Z,100270.13
2023-06-19T16:21:19.847Z,100275.06
2023-06-19T16:23:47.658Z,100270.31
2023-06-19T16:26:16.023Z,100280.72
2023-06-19T16:28:43.774Z,100289.25
2023-06-19T16:31:13.229Z,100294.38
2023-06-19T16:33:41.082Z,100272.84
2023-06-19T16:36:11.248Z,100278.66
2023-06-19T16:38:39.382Z,100286.81
2023-06-19T16:41:07.433Z,100290.91
2023-06-19T16:43:35.485Z,100294.25
2023-06-19T16:46:03.573Z,100268.78
2023-06-19T16:48:32.914Z,100276.41
2023-06-19T16:51:01.062Z,100279.34
2023-06-19T16:53:28.944Z,100286.81
2023-06-19T16:55:57.769Z,100283.34
2023-06-19T16:58:25.573Z,100281.28
2023-06-19T17:00:53.624Z,100285.88
2023-06-19T17:03:21.865Z,100288.50
2023-06-19T17:08:48.882Z,100281.91
2023-06-19T17:11:20.515Z,100275.00
2023-06-19T17:13:49.079Z,100275.78
2023-06-19T17:16:17.008Z,100271.13
2023-06-19T17:18:44.957Z,100271.31
2023-06-19T17:21:14.474Z,100294.50
2023-06-19T17:23:42.228Z,100281.16
2023-06-19T17:26:09.944Z,100295.41
2023-06-19T17:28:37.882Z,100274.06
2023-06-19T17:31:08.425Z,100289.00
2023-06-19T17:33:36.578Z,100286.75
2023-06-19T17:36:05.247Z,100290.00
2023-06-19T17:38:35.633Z,100299.81
2023-06-19T17:41:03.701Z,100299.06
2023-06-19T17:43:31.395Z,100297.22
2023-06-19T17:45:59.159Z,100305.88
2023-06-19T17:48:27.203Z,100285.59
2023-06-19T17:50:55.432Z,100291.63
2023-06-19T17:53:23.506Z,100302.88
2023-06-19T17:55:53.282Z,100291.41
2023-06-19T17:58:22.642Z,100295.25
2023-06-19T18:00:50.368Z,100284.69
2023-06-19T18:03:18.199Z,100293.28
2023-06-19T18:05:46.278Z,100283.31
2023-06-19T18:08:14.043Z,100300.03
2023-06-19T18:10:42.382Z,100300.03
2023-06-19T18:13:11.628Z,100293.09
2023-06-19T18:24:39.270Z,100287.53
2023-06-19T18:27:07.807Z,100310.88
2023-06-19T18:29:37.148Z,100302.69
2023-06-19T18:32:05.393Z,100301.41
2023-06-19T18:34:33.346Z,100302.56
2023-06-19T18:37:01.304Z,100295.00
2023-06-19T18:39:29.107Z,100296.28
2023-06-19T18:41:56.813Z,100294.97
2023-06-19T18:44:24.526Z,100298.78
2023-06-19T18:46:53.591Z,100279.00
2023-06-19T18:49:21.563Z,100263.44
2023-06-19T18:51:49.262Z,100277.63
2023-06-19T18:54:17.004Z,100273.59
2023-06-19T18:56:44.767Z,100271.38
2023-06-19T18:59:12.519Z,100290.84
2023-06-19T19:01:40.646Z,100292.69
2023-06-19T19:04:09.753Z,100292.16
2023-06-19T19:06:37.702Z,100297.25
2023-06-19T19:09:05.400Z,100298.06
2023-06-19T19:11:33.516Z,100292.41
2023-06-19T19:14:01.215Z,100290.44
2023-06-19T19:16:29.070Z,100294.25
2023-06-19T19:18:56.922Z,100291.59
2023-06-19T19:21:25.981Z,100300.97
2023-06-19T19:23:53.668Z,100302.13
2023-06-19T19:26:21.477Z,100292.72
2023-06-19T19:28:49.154Z,100300.72
2023-06-19T19:31:16.875Z,100306.97
2023-06-19T19:33:44.561Z,100307.78
2023-06-19T19:36:12.417Z,100305.53
2023-06-19T19:38:41.495Z,100308.41
2023-06-19T19:41:09.566Z,100305.91
2023-06-19T19:43:37.778Z,100312.16
2023-06-19T19:46:05.639Z,100291.47
2023-06-19T19:48:33.488Z,100296.59
2023-06-19T19:51:01.185Z,100318.41
2023-06-19T19:53:29.282Z,100312.66
2023-06-19T19:55:58.486Z,100322.44
2023-06-19T19:58:27.145Z,100324.09
2023-06-19T20:00:54.922Z,100323.66
2023-06-19T20:03:22.936Z,100324.31
2023-06-19T20:05:50.735Z,100326.44
2023-06-19T20:08:18.425Z,100318.53
2023-06-19T20:10:46.668Z,100319.69
2023-06-19T20:13:15.962Z,100331.28
2023-06-19T20:15:43.687Z,100334.31
2023-06-19T20:18:11.405Z,100335.84
2023-06-19T20:20:39.154Z,100321.53
2023-06-19T20:23:07.606Z,100336.00
2023-06-19T20:25:36.520Z,100335.59
2023-06-19T20:28:08.628Z,100324.88
2023-06-19T20:30:56.599Z,100335.44
2023-06-19T20:33:24.448Z,100334.50
2023-06-19T20:35:52.538Z,100343.88
2023-06-19T20:38:21.394Z,100328.97
2023-06-19T20:40:49.668Z,100327.28
2023-06-19T20:43:17.462Z,100331.91
2023-06-19T20:45:45.134Z,100336.63
2023-06-19T20:48:14.362Z,100341.25
2023-06-19T20:50:42.071Z,100332.53
2023-06-19T20:53:09.833Z,100337.06
2023-06-19T20:55:37.732Z,100322.97
2023-06-19T20:58:06.046Z,100324.00
2023-06-19T21:00:34.462Z,100329.28
2023-06-19T21:03:04.179Z,100343.31
2023-06-19T21:05:33.493Z,100329.94
2023-06-19T21:08:01.393Z,100325.75
2023-06-19T21:10:29.565Z,100339.56
2023-06-19T21:13:04.468Z,100338.69
2023-06-19T21:15:38.545Z,100340.59
2023-06-19T21:18:06.300Z,100342.81
2023-06-19T21:20:35.431Z,100339.97
2023-06-19T21:23:03.088Z,100334.59
2023-06-19T21:25:30.944Z,100349.00
2023-06-19T21:27:59.439Z,100340.38
2023-06-19T21:30:27.356Z,100348.69
2023-06-19T21:32:55.536Z,100350.44
2023-06-19T21:35:23.398Z,100355.06
2023-06-19T21:37:52.402Z,100350.78
2023-06-19T21:40:20.002Z,100356.13
2023-06-19T21:42:48.200Z,100358.03
2023-06-19T21:45:19.150Z,100354.47
2023-06-19T21:47:49.055Z,100350.00
2023-06-19T21:50:20.742Z,100350.44
2023-06-19T21:52:49.861Z,100353.31
2023-06-19T21:55:19.188Z,100339.38
2023-06-19T21:57:59.396Z,100353.94
2023-06-19T22:00:29.432Z,100343.50
2023-06-19T22:02:57.959Z,100345.56
2023-06-19T22:05:26.245Z,100345.94
2023-06-19T22:07:54.500Z,100338.16
2023-06-19T22:10:24.777Z,100344.34
2023-06-19T22:12:53.042Z,100340.53
2023-06-19T22:15:24.418Z,100334.59
2023-06-19T22:17:52.454Z,100331.91
2023-06-19T22:20:20.426Z,100327.34
2023-06-19T22:22:48.790Z,100325.25
2023-06-19T22:25:17.497Z,100328.97
2023-06-19T22:30:22.166Z,100322.50
2023-06-19T22:32:49.980Z,100328.16
2023-06-19T22:35:17.657Z,100325.41
2023-06-19T22:37:45.777Z,100320.41
2023-06-19T22:40:14.453Z,100324.75
2023-06-19T22:42:42.667Z,100325.88
2023-06-19T22:45:11.808Z,100324.94
2023-06-19T22:47:41.555Z,100319.56
2023-06-19T22:50:10.884Z,100316.69
2023-06-19T22:52:38.894Z,100327.03
2023-06-19T22:55:07.267Z,100337.56
2023-06-19T22:57:36.237Z,100330.44
2023-06-19T23:00:08.852Z,100325.41
2023-06-19T23:02:36.627Z,100343.19
2023-06-19T23:05:06.570Z,100333.66
2023-06-19T23:07:34.317Z,100325.25
2023-06-19T23:10:03.412Z,100328.34
2023-06-19T23:12:31.070Z,100333.47
2023-06-19T23:14:58.794Z,100334.44
2023-06-19T23:17:26.638Z,100335.28
2023-06-19T23:19:59.401Z,100327.16
2023-06-19T23:22:28.777Z,100325.88
2023-06-19T23:24:56.467Z,100328.34
2023-06-19T23:27:24.174Z,100324.44
2023-06-19T23:29:52.748Z,100328.13
2023-06-19T23:32:21.724Z,100320.41
2023-06-19T23:34:50.037Z,100318.16
2023-06-19T23:37:17.711Z,100316.50
2023-06-19T23:39:46.917Z,100314.50
2023-06-19T23:42:14.625Z,100323.66
2023-06-19T23:44:42.300Z,100320.22
2023-06-19T23:47:09.963Z,100319.25
2023-06-19T23:49:39.257Z,100321.88
2023-06-19T23:52:07.787Z,100316.47
2023-06-19T23:54:35.442Z,100321.72
2023-06-19T23:57:05.012Z,100315.09
2023-06-19T23:59:32.654Z,100327.38
